createdAt,value
2022-07-28T00:00:46.747Z,101243.59
2022-07-28T00:03:14.389Z,101241.13
2022-07-28T00:05:41.591Z,101239.28
2022-07-28T00:08:10.109Z,101244.63
2022-07-28T00:10:36.608Z,101245.72
2022-07-28T00:13:03.084Z,101234.38
2022-07-28T00:15:33.431Z,101244.28
2022-07-28T00:18:00.612Z,101244.34
2022-07-28T00:20:27.973Z,101246.09
2022-07-28T00:22:54.534Z,101237.59
2022-07-28T00:25:21.111Z,101241.22
2022-07-28T00:27:48.310Z,101237.91
2022-07-28T00:30:14.785Z,101234.28
2022-07-28T00:32:41.607Z,101242.22
2022-07-28T00:35:08.757Z,101231.94
2022-07-28T00:37:35.444Z,101237.28
2022-07-28T00:40:02.491Z,101235.50
2022-07-28T00:42:28.994Z,101240.91
2022-07-28T00:44:55.444Z,101232.28
2022-07-28T00:47:22.002Z,101240.22
2022-07-28T00:49:50.278Z,101244.72
2022-07-28T00:52:18.252Z,101237.00
2022-07-28T00:54:44.743Z,101230.13
2022-07-28T00:57:11.221Z,101236.34
2022-07-28T00:59:37.687Z,101232.06
2022-07-28T01:02:04.292Z,101226.00
2022-07-28T01:04:30.981Z,101227.78
2022-07-28T01:07:19.654Z,101233.03
2022-07-28T01:10:08.501Z,101240.13
2022-07-28T01:12:42.378Z,101238.56
2022-07-28T01:15:33.674Z,101237.09
2022-07-28T01:18:25.079Z,101237.38
2022-07-28T01:20:56.648Z,101235.72
2022-07-28T01:23:32.250Z,101234.16
2022-07-28T01:26:23.056Z,101228.97
2022-07-28T01:28:52.517Z,101224.56
2022-07-28T01:31:24.942Z,101225.41
2022-07-28T01:33:55.397Z,101228.16
2022-07-28T01:36:25.718Z,101230.00
2022-07-28T01:38:52.180Z,101229.19
2022-07-28T01:41:19.795Z,101227.53
2022-07-28T01:43:51.465Z,101236.34
2022-07-28T01:46:18.052Z,101229.34
2022-07-28T01:48:44.585Z,101224.16
2022-07-28T01:51:11.107Z,101236.63
2022-07-28T01:53:37.810Z,101222.72
2022-07-28T01:56:05.014Z,101226.25
2022-07-28T01:58:31.588Z,101219.22
2022-07-28T02:00:58.804Z,101213.88
2022-07-28T02:03:25.323Z,101214.78
2022-07-28T02:05:52.813Z,101213.97
2022-07-28T02:08:19.476Z,101211.44
2022-07-28T02:11:05.863Z,101199.34
2022-07-28T02:13:36.522Z,101200.34
2022-07-28T02:16:04.607Z,101197.88
2022-07-28T02:18:31.233Z,101197.06
2022-07-28T02:20:58.479Z,101201.53
2022-07-28T02:23:24.920Z,101207.72
2022-07-28T02:25:51.417Z,101209.50
2022-07-28T02:28:17.884Z,101214.91
2022-07-28T02:31:06.469Z,101218.44
2022-07-28T02:33:59.971Z,101205.34
2022-07-28T02:36:27.411Z,101211.50
2022-07-28T02:38:56.292Z,101211.66
2022-07-28T02:41:25.707Z,101216.97
2022-07-28T02:43:53.542Z,101217.13
2022-07-28T02:46:23.345Z,101217.19
2022-07-28T02:48:54.712Z,101217.31
2022-07-28T02:51:22.196Z,101216.59
2022-07-28T02:53:48.627Z,101216.50
2022-07-28T02:56:16.651Z,101212.19
2022-07-28T02:58:43.079Z,101201.09
2022-07-28T03:01:09.582Z,101190.53
2022-07-28T03:03:36.058Z,101201.97
2022-07-28T03:06:02.744Z,101209.88
2022-07-28T03:08:29.188Z,101209.00
2022-07-28T03:11:12.281Z,101207.41
2022-07-28T03:13:39.468Z,101204.81
2022-07-28T03:16:06.461Z,101211.00
2022-07-28T03:18:32.949Z,101222.41
2022-07-28T03:20:59.410Z,101218.13
2022-07-28T03:23:34.752Z,101221.75
2022-07-28T03:26:05.321Z,101226.13
2022-07-28T03:28:31.766Z,101223.41
2022-07-28T03:31:04.064Z,101223.41
2022-07-28T03:33:30.570Z,101223.53
2022-07-28T03:36:01.984Z,101206.06
2022-07-28T03:38:41.138Z,101215.66
2022-07-28T03:41:08.227Z,101217.41
2022-07-28T03:43:34.691Z,101215.56
2022-07-28T03:46:01.293Z,101218.16
2022-07-28T03:48:31.177Z,101218.16
2022-07-28T03:50:58.103Z,101218.13
2022-07-28T03:53:26.534Z,101216.25
2022-07-28T03:55:53.749Z,101217.09
2022-07-28T03:58:25.995Z,101224.97
2022-07-28T04:00:55.085Z,101224.91
2022-07-28T04:03:36.746Z,101221.47
2022-07-28T04:06:08.224Z,101208.25
2022-07-28T04:08:35.013Z,101209.06
2022-07-28T04:11:01.469Z,101205.44
2022-07-28T04:13:27.915Z,101206.25
2022-07-28T04:15:54.363Z,101200.00
2022-07-28T04:18:20.782Z,101205.13
2022-07-28T04:20:47.212Z,101203.19
2022-07-28T04:23:13.669Z,101197.81
2022-07-28T04:25:40.431Z,101199.34
2022-07-28T04:28:06.914Z,101208.03
2022-07-28T04:30:33.449Z,101203.50
2022-07-28T04:32:59.994Z,101202.50
2022-07-28T04:35:28.228Z,101207.59
2022-07-28T04:38:01.060Z,101207.50
2022-07-28T04:40:27.771Z,101209.16
2022-07-28T04:42:54.917Z,101215.97
2022-07-28T04:45:21.483Z,101220.16
2022-07-28T04:47:48.022Z,101217.34
2022-07-28T04:50:16.056Z,101213.63
2022-07-28T04:52:42.679Z,101210.75
2022-07-28T04:55:09.212Z,101216.88
2022-07-28T04:57:36.484Z,101209.88
2022-07-28T05:00:03.885Z,101213.09
2022-07-28T05:02:30.345Z,101212.88
2022-07-28T05:04:56.844Z,101219.91
2022-07-28T05:07:23.381Z,101215.28
2022-07-28T05:09:49.822Z,101214.19
2022-07-28T05:12:16.341Z,101213.19
2022-07-28T05:14:42.868Z,101213.88
2022-07-28T05:17:09.320Z,101225.03
2022-07-28T05:19:36.334Z,101222.19
2022-07-28T05:22:05.524Z,101221.97
2022-07-28T05:24:32.051Z,101229.56
2022-07-28T05:26:58.979Z,101217.97
2022-07-28T05:29:25.450Z,101235.75
2022-07-28T05:32:05.120Z,101237.38
2022-07-28T05:34:43.343Z,101230.56
2022-07-28T05:37:09.859Z,101233.75
2022-07-28T05:39:36.385Z,101230.03
2022-07-28T05:42:02.876Z,101238.59
2022-07-28T05:44:29.322Z,101233.84
2022-07-28T05:46:55.808Z,101234.56
2022-07-28T05:49:23.828Z,101236.34
2022-07-28T05:51:50.346Z,101234.94
2022-07-28T05:54:17.095Z,101240.09
2022-07-28T05:56:47.102Z,101235.25
2022-07-28T05:59:16.822Z,101243.13
2022-07-28T06:01:43.400Z,101256.69
2022-07-28T06:04:25.992Z,101252.22
2022-07-28T06:06:54.095Z,101256.19
2022-07-28T06:09:20.538Z,101262.28
2022-07-28T06:11:47.059Z,101270.13
2022-07-28T06:14:13.732Z,101274.81
2022-07-28T06:16:40.418Z,101276.16
2022-07-28T06:19:06.988Z,101290.25
2022-07-28T06:21:33.412Z,101291.25
2022-07-28T06:24:00.106Z,101287.66
2022-07-28T06:26:26.582Z,101295.41
2022-07-28T06:28:53.079Z,101289.91
2022-07-28T06:31:19.544Z,101291.69
2022-07-28T06:33:46.036Z,101296.97
2022-07-28T06:36:12.470Z,101290.75
2022-07-28T06:38:38.977Z,101298.38
2022-07-28T06:41:05.488Z,101299.78
2022-07-28T06:43:36.806Z,101299.00
2022-07-28T06:46:05.361Z,101292.59
2022-07-28T06:48:31.789Z,101296.25
2022-07-28T06:50:59.789Z,101292.50
2022-07-28T06:53:26.784Z,101299.41
2022-07-28T06:55:55.629Z,101292.28
2022-07-28T06:58:23.880Z,101298.69
2022-07-28T07:00:50.413Z,101298.06
2022-07-28T07:03:16.917Z,101294.41
2022-07-28T07:05:43.466Z,101297.69
2022-07-28T07:08:09.888Z,101294.41
2022-07-28T07:10:36.354Z,101295.19
2022-07-28T07:13:02.822Z,101291.75
2022-07-28T07:15:29.316Z,101293.59
2022-07-28T07:17:55.889Z,101286.16
2022-07-28T07:20:22.424Z,101285.53
2022-07-28T07:22:48.958Z,101279.75
2022-07-28T07:25:16.971Z,101276.88
2022-07-28T07:27:43.716Z,101278.38
2022-07-28T07:30:10.934Z,101268.34
2022-07-28T07:32:37.505Z,101268.09
2022-07-28T07:35:04.857Z,101264.66
2022-07-28T07:37:34.298Z,101265.22
2022-07-28T07:40:01.044Z,101257.97
2022-07-28T07:42:27.830Z,101259.53
2022-07-28T07:44:54.728Z,101274.63
2022-07-28T07:47:21.275Z,101268.00
2022-07-28T07:49:47.709Z,101269.34
2022-07-28T07:52:14.427Z,101265.88
2022-07-28T07:54:41.302Z,101264.44
2022-07-28T07:57:07.770Z,101266.00
2022-07-28T07:59:34.213Z,101260.66
2022-07-28T08:02:00.833Z,101257.56
2022-07-28T08:04:28.715Z,101259.06
2022-07-28T08:06:55.457Z,101263.81
2022-07-28T08:09:22.689Z,101267.81
2022-07-28T08:11:49.154Z,101261.34
2022-07-28T08:14:15.915Z,101257.56
2022-07-28T08:16:42.769Z,101264.84
2022-07-28T08:19:09.316Z,101253.38
2022-07-28T08:21:38.198Z,101251.91
2022-07-28T08:24:04.913Z,101242.44
2022-07-28T08:26:31.527Z,101244.69
2022-07-28T08:28:58.027Z,101247.00
2022-07-28T08:31:24.602Z,101246.34
2022-07-28T08:33:53.464Z,101251.91
2022-07-28T08:36:21.205Z,101246.25
2022-07-28T08:38:47.693Z,101249.25
2022-07-28T08:41:18.372Z,101243.13
2022-07-28T08:43:44.840Z,101245.50
2022-07-28T08:46:11.393Z,101241.00
2022-07-28T08:48:38.302Z,101232.81
2022-07-28T08:51:09.470Z,101237.31
2022-07-28T08:53:37.101Z,101236.84
2022-07-28T08:56:05.324Z,101228.09
2022-07-28T08:58:32.804Z,101227.75
2022-07-28T09:00:59.599Z,101234.56
2022-07-28T09:03:27.156Z,101236.50
2022-07-28T09:05:54.249Z,101237.72
2022-07-28T09:08:20.822Z,101229.41
2022-07-28T09:10:50.391Z,101233.19
2022-07-28T09:13:17.646Z,101226.09
2022-07-28T09:15:46.430Z,101228.50
2022-07-28T09:18:13.867Z,101235.09
2022-07-28T09:20:41.339Z,101231.38
2022-07-28T09:23:42.538Z,101231.13
2022-07-28T09:26:11.418Z,101237.25
2022-07-28T09:28:58.936Z,101230.25
2022-07-28T09:31:26.675Z,101229.22
2022-07-28T09:34:01.006Z,101233.28
2022-07-28T09:36:28.603Z,101228.84
2022-07-28T09:38:56.561Z,101226.50
2022-07-28T09:41:23.274Z,101224.47
2022-07-28T09:43:54.993Z,101233.84
2022-07-28T09:46:24.404Z,101222.50
2022-07-28T09:49:01.216Z,101224.22
2022-07-28T09:51:31.232Z,101214.59
2022-07-28T09:54:08.062Z,101219.19
2022-07-28T09:56:35.200Z,101217.75
2022-07-28T09:59:04.279Z,101222.44
2022-07-28T10:01:36.607Z,101214.44
2022-07-28T10:04:10.007Z,101207.22
2022-07-28T10:06:39.386Z,101204.00
2022-07-28T10:09:14.751Z,101208.28
2022-07-28T10:11:41.927Z,101205.38
2022-07-28T10:14:09.548Z,101204.88
2022-07-28T10:16:47.252Z,101204.75
2022-07-28T10:19:13.722Z,101203.69
2022-07-28T10:21:42.508Z,101200.81
2022-07-28T10:24:10.621Z,101186.63
2022-07-28T10:26:47.426Z,101190.47
2022-07-28T10:29:15.847Z,101188.91
2022-07-28T10:31:52.579Z,101181.31
2022-07-28T10:34:34.085Z,101174.38
2022-07-28T10:37:03.854Z,101177.56
2022-07-28T10:39:41.171Z,101172.97
2022-07-28T10:42:10.659Z,101173.94
2022-07-28T10:44:38.225Z,101176.50
2022-07-28T10:47:09.298Z,101171.28
2022-07-28T10:49:45.155Z,101164.41
2022-07-28T10:52:45.429Z,101162.22
2022-07-28T10:55:35.501Z,101159.00
2022-07-28T10:58:19.306Z,101162.97
2022-07-28T11:00:58.203Z,101161.63
2022-07-28T11:03:47.078Z,101155.78
2022-07-28T11:06:34.460Z,101153.25
2022-07-28T11:09:21.667Z,101142.16
2022-07-28T11:11:51.886Z,101138.53
2022-07-28T11:14:24.741Z,101149.34
2022-07-28T11:17:00.374Z,101141.03
2022-07-28T11:19:55.679Z,101134.69
2022-07-28T11:22:34.928Z,101144.56
2022-07-28T11:25:19.331Z,101130.50
2022-07-28T11:27:49.971Z,101137.44
2022-07-28T11:30:36.783Z,101131.41
2022-07-28T11:33:07.076Z,101131.28
2022-07-28T11:35:39.718Z,101127.69
2022-07-28T11:38:06.328Z,101124.75
2022-07-28T11:40:42.386Z,101122.84
2022-07-28T11:43:22.422Z,101115.34
2022-07-28T11:46:01.654Z,101116.97
2022-07-28T11:48:29.070Z,101114.09
2022-07-28T11:51:04.433Z,101112.19
2022-07-28T11:53:40.924Z,101111.34
2022-07-28T11:56:14.100Z,101105.81
2022-07-28T11:58:40.899Z,101098.78
2022-07-28T12:01:17.815Z,101095.19
2022-07-28T12:03:49.938Z,101094.47
2022-07-28T12:06:29.072Z,101086.63
2022-07-28T12:09:02.469Z,101084.38
2022-07-28T12:11:33.330Z,101083.56
2022-07-28T12:14:06.650Z,101085.06
2022-07-28T12:16:34.706Z,101077.97
2022-07-28T12:19:01.737Z,101080.50
2022-07-28T12:21:46.147Z,101081.06
2022-07-28T12:24:44.964Z,101075.34
2022-07-28T12:27:13.532Z,101073.25
2022-07-28T12:29:42.175Z,101081.78
2022-07-28T12:32:12.118Z,101077.13
2022-07-28T12:34:40.290Z,101082.88
2022-07-28T12:37:09.693Z,101071.91
2022-07-28T12:39:38.508Z,101070.22
2022-07-28T12:42:09.407Z,101076.50
2022-07-28T12:44:47.552Z,101070.72
2022-07-28T12:47:15.177Z,101058.50
2022-07-28T12:49:42.661Z,101068.03
2022-07-28T12:52:21.831Z,101067.81
2022-07-28T12:54:53.398Z,101066.16
2022-07-28T12:57:50.485Z,101060.91
2022-07-28T13:00:20.186Z,101054.91
2022-07-28T13:02:47.558Z,101052.25
2022-07-28T13:06:04.830Z,101044.16
2022-07-28T13:08:37.894Z,101040.09
2022-07-28T13:11:28.109Z,101047.50
2022-07-28T13:13:57.741Z,101046.16
2022-07-28T13:16:25.766Z,101047.84
2022-07-28T13:18:57.259Z,101044.78
2022-07-28T13:21:58.768Z,101035.34
2022-07-28T13:24:26.698Z,101046.09
2022-07-28T13:26:53.158Z,101049.94
2022-07-28T13:29:19.709Z,101044.41
2022-07-28T13:31:46.307Z,101043.06
2022-07-28T13:34:13.159Z,101043.75
2022-07-28T13:36:39.909Z,101036.44
2022-07-28T13:39:06.890Z,101026.81
2022-07-28T13:41:56.383Z,101018.81
2022-07-28T13:44:19.817Z,101020.84
2022-07-28T13:46:47.334Z,101019.38
2022-07-28T13:49:16.695Z,101011.94
2022-07-28T13:51:43.239Z,101004.47
2022-07-28T13:54:09.734Z,101015.94
2022-07-28T13:56:38.060Z,101015.91
2022-07-28T13:59:07.282Z,101006.84
2022-07-28T14:01:36.035Z,101005.16
2022-07-28T14:04:04.090Z,100997.47
2022-07-28T14:06:30.544Z,100992.16
2022-07-28T14:08:57.647Z,100992.19
2022-07-28T14:11:24.136Z,100994.72
2022-07-28T14:13:52.199Z,100992.34
2022-07-28T14:16:22.523Z,100981.00
2022-07-28T14:18:49.466Z,100982.16
2022-07-28T14:21:16.045Z,100987.56
2022-07-28T14:23:42.566Z,100982.16
2022-07-28T14:26:34.580Z,100978.25
2022-07-28T14:28:55.546Z,100982.44
2022-07-28T14:31:22.392Z,100977.66
2022-07-28T14:33:54.230Z,100977.97
2022-07-28T14:36:21.824Z,100981.25
2022-07-28T14:38:55.483Z,100982.53
2022-07-28T14:41:22.248Z,100975.97
2022-07-28T14:43:48.687Z,100974.97
2022-07-28T14:46:20.912Z,100973.50
2022-07-28T14:48:48.056Z,100978.75
2022-07-28T14:51:14.637Z,100963.41
2022-07-28T14:53:43.404Z,100972.91
2022-07-28T14:56:18.476Z,100960.69
2022-07-28T14:58:44.975Z,100964.44
2022-07-28T15:01:11.484Z,100960.00
2022-07-28T15:03:37.999Z,100960.78
2022-07-28T15:06:10.146Z,100962.41
2022-07-28T15:08:36.694Z,100959.53
2022-07-28T15:11:04.597Z,100952.56
2022-07-28T15:13:31.050Z,100949.09
2022-07-28T15:15:59.828Z,100953.75
2022-07-28T15:18:26.546Z,100954.00
2022-07-28T15:20:55.257Z,100948.44
2022-07-28T15:23:22.298Z,100947.06
2022-07-28T15:25:48.808Z,100940.75
2022-07-28T15:28:17.735Z,100947.47
2022-07-28T15:30:51.358Z,100949.50
2022-07-28T15:33:20.521Z,100956.00
2022-07-28T15:35:59.107Z,100947.25
2022-07-28T15:38:27.532Z,100952.88
2022-07-28T15:41:02.603Z,100944.66
2022-07-28T15:43:29.293Z,100947.13
2022-07-28T15:45:56.538Z,100943.56
2022-07-28T15:48:23.306Z,100938.72
2022-07-28T15:50:49.743Z,100939.91
2022-07-28T15:53:16.537Z,100935.09
2022-07-28T15:55:46.239Z,100932.09
2022-07-28T15:58:14.227Z,100923.25
2022-07-28T16:00:40.983Z,100927.72
2022-07-28T16:03:07.631Z,100921.00
2022-07-28T16:05:34.164Z,100921.31
2022-07-28T16:08:00.648Z,100913.53
2022-07-28T16:10:29.005Z,100904.50
2022-07-28T16:12:57.551Z,100906.94
2022-07-28T16:15:26.810Z,100917.47
2022-07-28T16:17:54.075Z,100910.34
2022-07-28T16:20:20.901Z,100923.00
2022-07-28T16:22:47.386Z,100925.25
2022-07-28T16:25:16.874Z,100914.25
2022-07-28T16:27:44.460Z,100911.22
2022-07-28T16:30:11.518Z,100919.63
2022-07-28T16:32:38.513Z,100911.78
2022-07-28T16:35:06.592Z,100919.25
2022-07-28T16:37:33.740Z,100922.34
2022-07-28T16:40:01.206Z,100921.22
2022-07-28T16:42:27.752Z,100920.59
2022-07-28T16:44:54.295Z,100919.00
2022-07-28T16:47:21.527Z,100922.41
2022-07-28T16:49:48.080Z,100916.44
2022-07-28T16:52:15.011Z,100923.25
2022-07-28T16:54:41.983Z,100926.19
2022-07-28T16:57:08.474Z,100927.22
2022-07-28T16:59:37.631Z,100926.56
2022-07-28T17:02:14.456Z,100920.84
2022-07-28T17:04:41.013Z,100924.44
2022-07-28T17:07:08.275Z,100919.34
2022-07-28T17:09:34.837Z,100921.97
2022-07-28T17:12:01.415Z,100925.88
2022-07-28T17:14:28.015Z,100925.88
2022-07-28T17:16:54.499Z,100930.63
2022-07-28T17:19:22.227Z,100931.75
2022-07-28T17:21:48.893Z,100928.09
2022-07-28T17:24:16.028Z,100921.00
2022-07-28T17:27:35.196Z,100929.06
2022-07-28T17:29:29.472Z,100927.38
2022-07-28T17:31:56.034Z,100922.06
2022-07-28T17:34:22.643Z,100928.38
2022-07-28T17:36:50.385Z,100927.44
2022-07-28T17:39:16.908Z,100934.50
2022-07-28T17:41:43.406Z,100934.50
2022-07-28T17:44:09.869Z,100934.78
2022-07-28T17:46:37.011Z,100937.59
2022-07-28T17:49:06.042Z,100934.50
2022-07-28T17:51:33.672Z,100940.88
2022-07-28T17:54:01.120Z,100934.03
2022-07-28T17:56:28.285Z,100936.22
2022-07-28T17:58:55.513Z,100935.25
2022-07-28T18:01:23.054Z,100933.25
2022-07-28T18:03:58.499Z,100935.69
2022-07-28T18:06:30.309Z,100937.13
2022-07-28T18:08:57.461Z,100937.13
2022-07-28T18:11:27.690Z,100939.34
2022-07-28T18:14:15.711Z,100935.28
2022-07-28T18:16:41.192Z,100934.34
2022-07-28T18:19:07.788Z,100933.78
2022-07-28T18:21:34.844Z,100936.50
2022-07-28T18:24:01.545Z,100931.88
2022-07-28T18:26:28.005Z,100940.84
2022-07-28T18:28:54.485Z,100948.38
2022-07-28T18:31:21.761Z,100939.53
2022-07-28T18:33:48.303Z,100942.97
2022-07-28T18:36:15.365Z,100948.94
2022-07-28T18:38:41.816Z,100944.25
2022-07-28T18:41:08.256Z,100938.38
2022-07-28T18:43:34.702Z,100939.47
2022-07-28T18:46:03.857Z,100931.31
2022-07-28T18:48:30.347Z,100943.66
2022-07-28T18:50:56.789Z,100950.38
2022-07-28T18:53:26.499Z,100938.53
2022-07-28T18:55:52.960Z,100948.00
2022-07-28T18:58:19.430Z,100945.53
2022-07-28T19:00:45.968Z,100945.78
2022-07-28T19:03:12.538Z,100940.22
2022-07-28T19:05:40.696Z,100945.09
2022-07-28T19:08:10.555Z,100946.38
2022-07-28T19:10:37.120Z,100951.06
2022-07-28T19:13:04.477Z,100953.59
2022-07-28T19:15:31.042Z,100949.75
2022-07-28T19:18:10.622Z,100953.56
2022-07-28T19:20:41.029Z,100953.38
2022-07-28T19:23:07.478Z,100960.69
2022-07-28T19:25:36.091Z,100964.72
2022-07-28T19:28:03.127Z,100971.78
2022-07-28T19:30:31.904Z,100969.13
2022-07-28T19:32:58.437Z,100966.88
2022-07-28T19:35:24.876Z,100974.88
2022-07-28T19:37:51.324Z,100969.50
2022-07-28T19:40:17.839Z,100976.28
2022-07-28T19:42:44.319Z,100980.09
2022-07-28T19:45:10.889Z,100981.97
2022-07-28T19:47:37.420Z,100990.13
2022-07-28T19:50:05.144Z,100985.78
2022-07-28T19:52:31.887Z,100998.34
2022-07-28T19:54:58.350Z,100993.09
2022-07-28T19:57:25.317Z,100988.25
2022-07-28T19:59:51.850Z,100994.78
2022-07-28T20:02:18.530Z,100995.25
2022-07-28T20:04:45.111Z,100997.53
2022-07-28T20:07:11.673Z,100995.69
2022-07-28T20:09:38.536Z,101000.50
2022-07-28T20:12:05.352Z,101006.53
2022-07-28T20:14:35.045Z,101004.81
2022-07-28T20:17:01.681Z,101005.41
2022-07-28T20:19:28.247Z,101013.25
2022-07-28T20:21:54.781Z,101010.66
2022-07-28T20:24:21.271Z,101008.19
2022-07-28T20:26:47.877Z,101022.44
2022-07-28T20:29:14.558Z,101006.47
2022-07-28T20:31:41.023Z,101007.06
2022-07-28T20:34:07.718Z,101012.69
2022-07-28T20:36:34.474Z,101005.53
2022-07-28T20:39:01.038Z,101003.91
2022-07-28T20:41:27.678Z,101004.19
2022-07-28T20:46:41.104Z,100999.53
2022-07-28T20:49:07.694Z,101002.63
2022-07-28T20:51:34.319Z,101007.94
2022-07-28T20:54:00.822Z,101016.47
2022-07-28T20:56:27.318Z,101015.34
2022-07-28T20:58:53.787Z,101015.00
2022-07-28T21:01:23.373Z,101020.75
2022-07-28T21:03:49.990Z,101015.16
2022-07-28T21:06:16.568Z,101015.66
2022-07-28T21:08:44.731Z,101014.81
2022-07-28T21:11:11.872Z,101019.91
2022-07-28T21:13:38.461Z,101015.31
2022-07-28T21:16:05.014Z,101026.97
2022-07-28T21:18:31.593Z,101028.84
2022-07-28T21:20:59.585Z,101027.47
2022-07-28T21:23:26.134Z,101034.84
2022-07-28T21:25:52.756Z,101034.72
2022-07-28T21:28:37.882Z,101038.41
2022-07-28T21:31:04.596Z,101044.06
2022-07-28T21:33:31.509Z,101039.41
2022-07-28T21:35:58.072Z,101042.47
2022-07-28T21:38:24.610Z,101045.56
2022-07-28T21:40:51.092Z,101045.31
2022-07-28T21:43:17.507Z,101045.44
2022-07-28T21:45:45.643Z,101053.56
2022-07-28T21:48:12.595Z,101051.66
2022-07-28T21:50:39.151Z,101049.59
2022-07-28T21:53:05.575Z,101056.31
2022-07-28T21:55:32.249Z,101050.38
2022-07-28T21:57:58.690Z,101059.91
2022-07-28T22:00:25.368Z,101060.94
2022-07-28T22:02:51.874Z,101063.59
2022-07-28T22:05:18.694Z,101067.25
2022-07-28T22:07:45.239Z,101064.81
2022-07-28T22:10:11.762Z,101069.63
2022-07-28T22:12:39.291Z,101065.50
2022-07-28T22:15:06.384Z,101061.63
2022-07-28T22:17:32.889Z,101072.09
2022-07-28T22:19:59.372Z,101071.47
2022-07-28T22:22:25.863Z,101069.28
2022-07-28T22:24:52.395Z,101072.69
2022-07-28T22:27:18.868Z,101070.97
2022-07-28T22:29:50.153Z,101079.09
2022-07-28T22:32:18.306Z,101094.06
2022-07-28T22:34:55.250Z,101094.81
2022-07-28T22:37:21.691Z,101093.16
2022-07-28T22:39:48.176Z,101097.09
2022-07-28T22:42:14.625Z,101100.28
2022-07-28T22:44:41.087Z,101102.03
2022-07-28T22:47:07.538Z,101098.88
2022-07-28T22:49:34.028Z,101104.47
2022-07-28T22:52:00.706Z,101103.13
2022-07-28T22:54:27.169Z,101105.22
2022-07-28T22:56:53.617Z,101102.78
2022-07-28T22:59:20.092Z,101114.66
2022-07-28T23:01:47.985Z,101107.94
2022-07-28T23:04:14.809Z,101104.50
2022-07-28T23:06:42.181Z,101106.38
2022-07-28T23:09:08.656Z,101108.38
2022-07-28T23:11:35.178Z,101104.13
2022-07-28T23:14:01.656Z,101109.53
2022-07-28T23:16:28.204Z,101104.31
2022-07-28T23:18:54.777Z,101112.34
2022-07-28T23:21:21.315Z,101115.91
2022-07-28T23:23:47.759Z,101116.97
2022-07-28T23:26:14.265Z,101124.09
2022-07-28T23:28:40.716Z,101115.34
2022-07-28T23:31:07.284Z,101125.09
2022-07-28T23:33:54.349Z,101112.91
2022-07-28T23:36:26.433Z,101112.31
2022-07-28T23:38:55.471Z,101108.16
2022-07-28T23:41:21.988Z,101110.28
2022-07-28T23:43:48.487Z,101108.72
2022-07-28T23:46:14.999Z,101112.16
2022-07-28T23:48:42.583Z,101110.69
2022-07-28T23:51:09.575Z,101110.69
2022-07-28T23:53:41.074Z,101105.53
2022-07-28T23:56:08.021Z,101105.66
2022-07-28T23:58:34.923Z,101101.38
